Time;durP1;ratioP1;P1;durP2;ratioP2;P2;SDS_P1;SDS_P2;PMS_P1;PMS_P2;Temp;Humidity;BMP_temperature;BMP_pressure;BME280_temperature;BME280_humidity;BME280_pressure;Samples;Min_cycle;Max_cycle;Signal;HPM_P1;HPM_P2
2022/08/09 00:01:20;;;;;;;5.43;2.83;;;24.30;46.00;;;;;;4938195;29;20063;-75
2022/08/09 00:03:45;;;;;;;5.05;2.80;;;24.20;46.20;;;;;;4937975;29;20544;-74
2022/08/09 00:06:11;;;;;;;7.13;3.47;;;24.30;46.20;;;;;;4936993;29;20079;-73
2022/08/09 00:08:38;;;;;;;9.95;3.55;;;24.20;46.20;;;;;;4938103;29;20110;-74
2022/08/09 00:11:16;;;;;;;8.15;3.03;;;24.20;46.30;;;;;;4938079;29;20063;-74
2022/08/09 00:13:53;;;;;;;5.13;2.90;;;24.20;46.20;;;;;;4937927;29;20062;-75
2022/08/09 00:16:51;;;;;;;4.88;2.78;;;24.20;46.50;;;;;;4950599;23;20126;-72
2022/08/09 00:19:17;;;;;;;5.95;2.83;;;24.20;46.30;;;;;;4977376;28;20023;-72
2022/08/09 00:21:43;;;;;;;5.95;2.80;;;24.20;46.40;;;;;;4958830;28;20045;-72
2022/08/09 00:24:09;;;;;;;8.80;2.92;;;24.20;46.60;;;;;;4958808;28;20026;-73
2022/08/09 00:26:35;;;;;;;7.90;2.80;;;24.20;46.60;;;;;;4975224;28;20026;-73
2022/08/09 00:29:02;;;;;;;10.50;3.00;;;24.20;46.60;;;;;;4974883;28;20177;-72
2022/08/09 00:31:28;;;;;;;6.95;2.83;;;24.10;46.70;;;;;;4976122;28;20027;-73
2022/08/09 00:33:54;;;;;;;7.10;2.75;;;24.10;46.70;;;;;;4975951;28;20034;-72
2022/08/09 00:36:21;;;;;;;6.35;2.83;;;24.10;46.70;;;;;;4975077;28;20031;-72
2022/08/09 00:38:47;;;;;;;5.68;2.80;;;24.10;46.60;;;;;;4990926;28;20114;-70
2022/08/09 00:41:13;;;;;;;4.55;2.72;;;24.10;47.00;;;;;;4942959;28;20038;-72
2022/08/09 00:43:40;;;;;;;7.93;3.15;;;24.10;46.80;;;;;;4975916;28;20037;-72
2022/08/09 00:46:08;;;;;;;23.35;14.57;;;24.10;46.70;;;;;;4974758;28;20035;-72
2022/08/09 00:48:35;;;;;;;27.40;16.48;;;24.10;47.00;;;;;;4974281;28;20045;-71
2022/08/09 00:51:03;;;;;;;15.35;8.38;;;24.10;47.60;;;;;;4974348;28;20034;-72
2022/08/09 00:53:30;;;;;;;16.33;7.95;;;24.10;46.90;;;;;;4975683;28;20074;-72
2022/08/09 00:55:56;;;;;;;11.00;5.53;;;24.10;47.00;;;;;;4989780;28;20031;-72
2022/08/09 00:58:22;;;;;;;12.18;6.07;;;24.10;46.90;;;;;;4975598;28;20057;-71
2022/08/09 01:00:51;;;;;;;11.32;4.68;;;24.10;47.00;;;;;;4975411;28;20032;-71
2022/08/09 01:03:51;;;;;;;8.75;4.03;;;24.10;47.10;;;;;;4975754;28;20093;-73
2022/08/09 01:06:25;;;;;;;8.43;3.58;;;24.10;47.10;;;;;;4974481;28;20467;-72
2022/08/09 01:09:02;;;;;;;10.50;4.25;;;24.10;47.50;;;;;;4973336;28;20027;-72
2022/08/09 01:11:43;;;;;;;6.13;3.40;;;24.00;47.10;;;;;;4975439;28;20034;-71
2022/08/09 01:14:16;;;;;;;7.15;3.38;;;24.00;47.10;;;;;;4974136;28;20038;-72
2022/08/09 01:16:45;;;;;;;7.70;3.80;;;24.10;47.40;;;;;;4974442;28;20031;-72
2022/08/09 01:19:31;;;;;;;6.38;3.10;;;24.00;47.30;;;;;;4975072;28;20031;-72
2022/08/09 01:22:35;;;;;;;6.25;3.03;;;24.00;47.20;;;;;;4974017;28;20027;-73
2022/08/09 01:25:23;;;;;;;11.30;3.05;;;24.00;47.10;;;;;;4974892;28;20034;-71
2022/08/09 01:27:52;;;;;;;9.48;2.83;;;24.00;47.30;;;;;;4975146;28;20065;-72
2022/08/09 01:30:24;;;;;;;8.18;2.85;;;24.00;47.40;;;;;;4974966;28;20043;-71
2022/08/09 01:32:51;;;;;;;6.82;2.80;;;24.00;47.50;;;;;;4975100;28;20023;-71
2022/08/09 01:35:25;;;;;;;6.00;3.00;;;23.90;47.50;;;;;;4974088;28;20041;-71
2022/08/09 01:37:56;;;;;;;9.65;2.88;;;23.90;47.60;;;;;;4974941;28;20057;-72
2022/08/09 01:40:25;;;;;;;4.72;2.42;;;23.90;47.60;;;;;;4974790;28;20023;-72
2022/08/09 01:42:53;;;;;;;7.80;3.05;;;23.90;47.80;;;;;;4974815;28;20027;-72
2022/08/09 01:45:21;;;;;;;7.47;3.00;;;23.90;47.80;;;;;;4973780;28;20027;-72
2022/08/09 01:47:47;;;;;;;7.30;3.10;;;23.90;47.80;;;;;;4974713;28;20030;-72
2022/08/09 01:50:14;;;;;;;5.10;2.78;;;23.90;47.90;;;;;;4974507;28;20022;-72
2022/08/09 01:52:42;;;;;;;3.97;2.53;;;23.90;47.90;;;;;;4973588;28;20400;-72
2022/08/09 01:55:09;;;;;;;5.57;2.40;;;23.90;48.40;;;;;;4973719;28;20538;-71
2022/08/09 01:57:44;;;;;;;5.50;2.70;;;23.90;48.00;;;;;;4973489;28;20030;-72
2022/08/09 02:00:11;;;;;;;7.57;3.20;;;23.90;48.10;;;;;;4989412;28;20027;-72
2022/08/09 02:02:41;;;;;;;4.38;2.40;;;23.90;48.00;;;;;;4974583;28;20380;-72
2022/08/09 02:05:09;;;;;;;4.85;2.60;;;23.90;48.00;;;;;;4973463;28;20027;-72
2022/08/09 02:07:39;;;;;;;6.13;2.55;;;23.90;48.10;;;;;;4974322;28;20117;-72
2022/08/09 02:10:13;;;;;;;6.95;2.80;;;23.90;48.10;;;;;;4974163;28;20089;-71
2022/08/09 02:12:41;;;;;;;5.13;2.80;;;23.90;48.10;;;;;;4974306;28;20501;-71
2022/08/09 02:15:09;;;;;;;5.47;2.42;;;23.90;48.20;;;;;;4988444;28;20026;-71
2022/08/09 02:17:37;;;;;;;6.93;3.10;;;23.80;48.10;;;;;;4974010;28;20498;-71
2022/08/09 02:20:04;;;;;;;4.60;2.60;;;23.90;48.10;;;;;;4973935;28;20659;-72
2022/08/09 02:22:51;;;;;;;6.20;2.97;;;23.90;48.10;;;;;;4973946;28;20030;-72
2022/08/09 02:25:23;;;;;;;4.15;2.63;;;23.90;48.10;;;;;;4971523;28;20023;-72
2022/08/09 02:28:17;;;;;;;7.40;2.88;;;23.90;48.20;;;;;;4974169;28;20039;-72
2022/08/09 02:30:50;;;;;;;7.20;2.80;;;23.80;48.30;;;;;;4970682;28;20569;-72
2022/08/09 02:33:23;;;;;;;3.13;2.40;;;23.80;49.00;;;;;;4973868;28;20391;-72
2022/08/09 02:35:55;;;;;;;4.60;2.50;;;23.80;48.30;;;;;;4973003;28;20027;-71
2022/08/09 02:38:30;;;;;;;5.55;3.05;;;23.80;48.30;;;;;;4973755;28;20031;-72
2022/08/09 02:41:02;;;;;;;4.85;2.50;;;23.80;48.40;;;;;;4973726;28;20027;-72
2022/08/09 02:43:31;;;;;;;5.15;2.88;;;23.80;48.50;;;;;;4973686;28;20031;-72
2022/08/09 02:46:00;;;;;;;8.52;2.47;;;23.80;48.50;;;;;;4987715;28;20034;-72
2022/08/09 02:48:28;;;;;;;4.45;2.50;;;23.70;48.60;;;;;;4972588;28;20058;-72
2022/08/09 02:50:57;;;;;;;5.70;2.47;;;23.80;48.60;;;;;;4973809;28;20579;-72
2022/08/09 02:53:48;;;;;;;5.77;2.83;;;23.70;48.60;;;;;;4972267;28;20109;-71
2022/08/09 02:56:17;;;;;;;7.65;2.75;;;23.70;48.60;;;;;;4972920;28;20029;-72
2022/08/09 02:58:45;;;;;;;5.10;2.80;;;23.70;48.60;;;;;;4973537;28;20062;-71
2022/08/09 03:01:12;;;;;;;6.40;2.65;;;23.70;48.60;;;;;;4973428;28;20316;-72
2022/08/09 03:03:40;;;;;;;4.38;2.72;;;23.70;48.70;;;;;;4973414;28;20031;-71
2022/08/09 03:06:07;;;;;;;7.03;2.67;;;23.70;48.70;;;;;;4972422;28;20027;-72
2022/08/09 03:08:34;;;;;;;6.13;2.38;;;23.70;48.80;;;;;;4973402;28;20069;-72
2022/08/09 03:11:00;;;;;;;5.03;2.58;;;23.70;48.80;;;;;;4973301;28;20022;-72
2022/08/09 03:13:28;;;;;;;6.05;2.95;;;23.70;48.90;;;;;;4973305;28;20074;-72
2022/08/09 03:15:54;;;;;;;6.85;2.75;;;23.70;48.90;;;;;;4972153;28;20026;-71
2022/08/09 03:18:21;;;;;;;4.93;2.70;;;23.70;48.80;;;;;;4972017;28;20427;-72
2022/08/09 03:20:48;;;;;;;5.20;2.65;;;23.70;48.90;;;;;;4973091;28;20034;-71
2022/08/09 03:23:15;;;;;;;5.13;2.72;;;23.70;48.90;;;;;;4973219;28;20085;-71
2022/08/09 03:25:42;;;;;;;7.18;3.35;;;23.70;48.90;;;;;;4971002;28;20038;-71
2022/08/09 03:28:10;;;;;;;7.47;2.80;;;23.70;49.00;;;;;;4973064;28;20070;-72
2022/08/09 03:30:36;;;;;;;4.18;2.60;;;23.70;49.10;;;;;;4973360;28;20399;-72
2022/08/09 03:33:07;;;;;;;4.97;2.97;;;23.70;49.10;;;;;;4977293;28;20026;-72
2022/08/09 03:35:34;;;;;;;7.32;2.85;;;23.60;49.10;;;;;;4978601;28;20442;-72
2022/08/09 03:38:01;;;;;;;6.38;3.30;;;23.60;49.20;;;;;;4979549;28;20027;-71
2022/08/09 03:40:27;;;;;;;5.93;2.70;;;23.60;49.20;;;;;;4978224;28;20031;-71
2022/08/09 03:42:52;;;;;;;8.25;2.70;;;23.60;49.80;;;;;;4994549;28;20027;-72
2022/08/09 03:45:18;;;;;;;7.70;2.80;;;23.70;49.40;;;;;;4977303;28;20050;-72
2022/08/09 03:47:44;;;;;;;4.20;2.40;;;23.60;49.40;;;;;;4979273;28;20031;-72
2022/08/09 03:50:12;;;;;;;4.38;2.63;;;23.60;49.40;;;;;;4979273;28;20081;-72
2022/08/09 03:52:41;;;;;;;5.43;3.05;;;23.60;49.30;;;;;;4962139;28;20029;-72
2022/08/09 03:55:09;;;;;;;8.18;2.92;;;23.60;49.50;;;;;;4977611;28;20081;-72
2022/08/09 03:57:35;;;;;;;7.60;2.75;;;23.60;49.30;;;;;;4978066;28;20033;-72
2022/08/09 04:00:01;;;;;;;4.53;2.40;;;23.60;49.40;;;;;;4962216;28;20507;-71
2022/08/09 04:02:29;;;;;;;7.95;2.67;;;23.60;49.40;;;;;;4977944;28;20061;-72
2022/08/09 04:04:57;;;;;;;5.30;2.80;;;23.60;49.30;;;;;;4979226;28;20102;-72
2022/08/09 04:07:23;;;;;;;8.40;2.83;;;23.60;49.20;;;;;;4993231;28;20022;-72
2022/08/09 04:09:49;;;;;;;8.68;2.75;;;23.60;49.30;;;;;;4979194;28;20023;-72
2022/08/09 04:12:15;;;;;;;5.50;2.63;;;23.60;49.40;;;;;;4978096;28;20590;-72
2022/08/09 04:14:41;;;;;;;6.88;3.03;;;23.60;49.40;;;;;;4979107;28;20031;-72
2022/08/09 04:17:08;;;;;;;6.50;3.00;;;23.60;49.60;;;;;;4977582;28;20082;-72
2022/08/09 04:19:34;;;;;;;4.78;2.38;;;23.60;49.50;;;;;;4978972;28;20026;-72
2022/08/09 04:22:00;;;;;;;6.43;3.05;;;23.50;49.50;;;;;;4977780;28;20034;-72
2022/08/09 04:24:26;;;;;;;5.78;2.90;;;23.50;49.60;;;;;;4979043;28;20030;-71
2022/08/09 04:26:53;;;;;;;6.70;2.85;;;23.50;49.60;;;;;;4978184;28;20073;-72
2022/08/09 04:29:19;;;;;;;10.23;3.20;;;23.50;49.60;;;;;;4978923;28;20027;-72
2022/08/09 04:31:45;;;;;;;6.38;2.58;;;23.50;49.70;;;;;;4977463;28;20349;-72
2022/08/09 04:34:11;;;;;;;6.78;2.95;;;23.50;49.80;;;;;;4978946;28;20023;-71
2022/08/09 04:36:36;;;;;;;4.85;2.95;;;23.50;49.70;;;;;;4977984;28;20034;-72
2022/08/09 04:39:07;;;;;;;6.40;2.65;;;23.50;49.80;;;;;;4978837;28;20029;-72
2022/08/09 04:41:33;;;;;;;5.07;2.58;;;23.50;49.80;;;;;;4978865;28;20038;-72
2022/08/09 04:44:02;;;;;;;4.97;2.95;;;23.50;49.90;;;;;;4975793;28;20030;-72
2022/08/09 04:46:28;;;;;;;4.75;2.72;;;23.50;49.90;;;;;;4974775;28;20474;-72
2022/08/09 04:48:54;;;;;;;6.78;3.28;;;23.50;50.00;;;;;;4975758;28;20085;-72
2022/08/09 04:51:20;;;;;;;4.88;2.80;;;23.50;49.90;;;;;;4975760;28;20499;-72
2022/08/09 04:53:45;;;;;;;9.27;3.33;;;23.50;49.90;;;;;;4975713;28;20108;-73
2022/08/09 04:56:11;;;;;;;8.32;3.10;;;23.50;50.10;;;;;;4974794;28;20035;-73
2022/08/09 04:58:37;;;;;;;10.05;3.20;;;23.50;50.10;;;;;;4975574;28;20029;-73
2022/08/09 05:01:04;;;;;;;7.93;3.28;;;23.50;50.10;;;;;;4969221;28;20042;-73
2022/08/09 05:03:30;;;;;;;7.60;3.30;;;23.50;50.10;;;;;;4939274;28;20152;-73
2022/08/09 05:05:55;;;;;;;8.35;3.63;;;23.50;50.10;;;;;;4953149;29;20093;-72
2022/08/09 05:08:21;;;;;;;8.07;2.75;;;23.50;50.10;;;;;;4954790;28;20037;-72
2022/08/09 05:10:47;;;;;;;10.82;3.30;;;23.40;50.20;;;;;;4955986;28;20428;-73
2022/08/09 05:13:13;;;;;;;7.20;3.10;;;23.40;50.20;;;;;;4955887;29;20035;-73
2022/08/09 05:15:41;;;;;;;6.88;3.30;;;23.40;50.40;;;;;;4954867;29;20034;-73
2022/08/09 05:18:07;;;;;;;5.85;3.10;;;23.30;50.50;;;;;;4955804;28;20063;-73
2022/08/09 05:20:33;;;;;;;7.63;2.95;;;23.30;50.40;;;;;;4955828;29;20055;-73
2022/08/09 05:22:59;;;;;;;9.07;3.38;;;23.40;50.50;;;;;;4954695;28;20395;-73
2022/08/09 05:25:25;;;;;;;10.07;3.33;;;23.40;50.40;;;;;;4953681;28;20073;-73
2022/08/09 05:27:51;;;;;;;7.28;3.35;;;23.40;50.50;;;;;;4955745;28;20055;-73
2022/08/09 05:30:17;;;;;;;5.75;3.00;;;23.40;50.60;;;;;;4955564;28;20031;-73
2022/08/09 05:32:44;;;;;;;8.63;3.65;;;23.40;50.60;;;;;;4955786;28;20423;-72
2022/08/09 05:35:10;;;;;;;6.10;2.80;;;23.40;50.50;;;;;;4953772;29;20027;-72
2022/08/09 05:37:36;;;;;;;5.75;3.30;;;23.40;50.40;;;;;;4954293;28;20462;-73
2022/08/09 05:40:03;;;;;;;7.45;2.90;;;23.40;50.50;;;;;;4954533;29;20035;-73
2022/08/09 05:42:29;;;;;;;10.65;3.63;;;23.40;50.40;;;;;;4954192;29;20042;-74
2022/08/09 05:44:55;;;;;;;6.72;3.47;;;23.40;50.40;;;;;;4955309;29;20031;-74
2022/08/09 05:47:23;;;;;;;7.10;3.22;;;23.40;50.50;;;;;;4954470;29;20118;-74
2022/08/09 05:49:51;;;;;;;8.20;3.38;;;23.40;50.60;;;;;;4954155;28;20062;-74
2022/08/09 05:52:17;;;;;;;8.75;3.10;;;23.40;50.60;;;;;;4955469;28;20111;-73
2022/08/09 05:54:43;;;;;;;8.45;4.00;;;23.30;50.60;;;;;;4953661;28;20027;-73
2022/08/09 05:57:08;;;;;;;5.28;3.08;;;23.40;50.80;;;;;;4953029;29;20035;-74
2022/08/09 05:59:34;;;;;;;6.57;3.22;;;23.30;50.80;;;;;;4955095;28;20077;-74
2022/08/09 06:02:00;;;;;;;9.40;3.50;;;23.30;50.70;;;;;;4955115;28;20023;-74
2022/08/09 06:04:26;;;;;;;10.50;3.30;;;23.30;50.90;;;;;;4937746;29;20112;-73
2022/08/09 06:06:52;;;;;;;9.05;3.50;;;23.30;50.80;;;;;;4954085;28;20163;-73
2022/08/09 06:09:19;;;;;;;6.22;3.38;;;23.30;50.80;;;;;;4953663;29;20050;-73
2022/08/09 06:11:45;;;;;;;5.68;3.10;;;23.30;51.00;;;;;;4953663;29;20519;-73
2022/08/09 06:14:11;;;;;;;11.48;3.70;;;23.30;51.10;;;;;;4954812;29;20102;-73
2022/08/09 06:16:37;;;;;;;6.22;3.35;;;23.30;51.00;;;;;;4952651;28;20039;-73
2022/08/09 06:19:03;;;;;;;8.32;3.53;;;23.40;51.00;;;;;;4953441;28;20110;-74
2022/08/09 06:21:31;;;;;;;8.68;3.22;;;23.30;51.10;;;;;;4953712;29;20035;-73
2022/08/09 06:23:57;;;;;;;9.20;3.67;;;23.30;51.10;;;;;;4954666;28;20050;-71
2022/08/09 06:26:23;;;;;;;9.18;3.60;;;23.30;50.90;;;;;;4952403;29;20495;-71
2022/08/09 06:28:51;;;;;;;7.80;3.00;;;23.40;50.90;;;;;;4953184;28;20440;-72
2022/08/09 06:31:17;;;;;;;6.03;2.80;;;23.40;50.80;;;;;;4953345;28;20476;-72
2022/08/09 06:33:43;;;;;;;9.02;3.50;;;23.40;51.00;;;;;;4953016;29;20030;-72
2022/08/09 06:36:09;;;;;;;5.72;3.10;;;23.40;50.80;;;;;;4953590;29;20027;-71
2022/08/09 06:38:35;;;;;;;8.57;3.67;;;23.50;50.90;;;;;;4954424;29;20042;-72
2022/08/09 06:41:01;;;;;;;8.70;3.45;;;23.50;50.80;;;;;;4953326;29;20113;-72
2022/08/09 06:43:27;;;;;;;8.30;3.17;;;23.50;50.70;;;;;;4952901;29;20491;-71
2022/08/09 06:45:53;;;;;;;9.10;3.50;;;23.50;50.50;;;;;;4953396;28;20030;-72
2022/08/09 06:48:19;;;;;;;7.18;3.22;;;23.50;50.30;;;;;;4954177;28;20023;-72
2022/08/09 06:50:45;;;;;;;11.10;3.38;;;23.50;50.30;;;;;;4954183;29;20028;-73
2022/08/09 06:53:12;;;;;;;14.10;3.50;;;23.50;50.30;;;;;;4954133;28;20054;-73
2022/08/09 06:55:38;;;;;;;7.25;3.80;;;23.50;50.20;;;;;;4953252;28;20058;-72
2022/08/09 06:58:04;;;;;;;6.55;3.20;;;23.50;50.10;;;;;;4953002;28;20122;-72
2022/08/09 07:00:31;;;;;;;7.40;3.53;;;23.40;50.00;;;;;;4954047;29;20031;-73
2022/08/09 07:02:56;;;;;;;5.25;2.90;;;23.50;49.90;;;;;;4937012;29;20042;-73
2022/08/09 07:05:23;;;;;;;6.38;3.10;;;23.50;49.90;;;;;;4951921;29;20516;-72
2022/08/09 07:07:49;;;;;;;7.60;3.00;;;23.50;49.90;;;;;;4953319;28;20652;-72
2022/08/09 07:10:15;;;;;;;6.05;3.38;;;23.50;49.80;;;;;;4953961;28;20050;-72
2022/08/09 07:12:41;;;;;;;6.93;3.10;;;23.50;49.60;;;;;;4953867;28;20027;-72
2022/08/09 07:15:07;;;;;;;6.75;2.63;;;23.40;49.60;;;;;;4953324;29;20399;-72
2022/08/09 07:17:33;;;;;;;5.75;2.95;;;23.50;49.60;;;;;;4952597;28;20559;-72
2022/08/09 07:19:58;;;;;;;6.85;3.33;;;23.50;49.70;;;;;;4953785;29;20113;-72
2022/08/09 07:22:24;;;;;;;7.38;3.08;;;23.50;49.70;;;;;;4953843;29;20069;-72
2022/08/09 07:24:50;;;;;;;9.63;3.33;;;23.60;49.50;;;;;;4952599;28;20031;-71
2022/08/09 07:27:16;;;;;;;7.45;3.03;;;23.50;49.20;;;;;;4951916;28;20031;-71
2022/08/09 07:29:42;;;;;;;9.95;3.15;;;23.50;49.20;;;;;;4953571;29;20136;-71
2022/08/09 07:32:07;;;;;;;7.90;2.97;;;23.50;48.90;;;;;;4952687;29;20554;-72
2022/08/09 07:34:34;;;;;;;6.00;2.90;;;23.50;49.10;;;;;;4953486;29;20438;-72
2022/08/09 07:37:00;;;;;;;8.77;3.22;;;23.50;49.10;;;;;;4951717;28;20138;-72
2022/08/09 07:39:25;;;;;;;7.93;3.17;;;23.50;48.90;;;;;;4953483;29;20086;-72
2022/08/09 07:41:51;;;;;;;11.05;3.30;;;23.50;48.90;;;;;;4953604;29;20035;-72
2022/08/09 07:44:17;;;;;;;7.30;3.10;;;23.60;49.00;;;;;;4953446;29;20059;-72
2022/08/09 07:46:43;;;;;;;6.18;2.65;;;23.60;48.90;;;;;;4952586;28;20486;-72
2022/08/09 07:49:09;;;;;;;7.13;2.58;;;23.70;48.70;;;;;;4952306;29;20083;-73
2022/08/09 07:51:35;;;;;;;8.57;2.80;;;23.60;48.30;;;;;;4953717;29;20031;-73
2022/08/09 07:54:01;;;;;;;7.47;2.75;;;23.60;48.70;;;;;;4952173;29;20055;-73
2022/08/09 07:56:26;;;;;;;6.22;2.45;;;23.70;47.90;;;;;;4952649;29;20035;-73
2022/08/09 07:58:53;;;;;;;4.50;2.40;;;23.70;48.30;;;;;;4953446;28;20031;-72
2022/08/09 08:01:19;;;;;;;7.20;2.63;;;23.70;47.90;;;;;;4936438;29;20074;-72
2022/08/09 08:03:45;;;;;;;6.63;2.67;;;23.60;47.80;;;;;;4953387;29;20058;-72
2022/08/09 08:06:10;;;;;;;5.40;2.70;;;23.70;47.80;;;;;;4952772;28;20487;-73
2022/08/09 08:08:36;;;;;;;4.13;2.40;;;23.70;47.60;;;;;;4953318;29;20110;-72
2022/08/09 08:11:02;;;;;;;8.75;2.70;;;23.70;48.40;;;;;;4952040;28;20034;-72
2022/08/09 08:13:28;;;;;;;4.40;2.65;;;23.70;47.80;;;;;;4952042;28;20031;-72
2022/08/09 08:15:54;;;;;;;11.43;2.75;;;23.80;47.50;;;;;;4952236;29;20027;-72
2022/08/09 08:18:20;;;;;;;5.10;2.42;;;23.80;47.90;;;;;;4953887;28;20067;-72
2022/08/09 08:20:46;;;;;;;6.80;2.20;;;23.80;47.70;;;;;;4955874;29;20039;-72
2022/08/09 08:23:12;;;;;;;7.55;2.30;;;23.80;47.20;;;;;;4955657;29;20067;-72
2022/08/09 08:25:38;;;;;;;6.70;2.90;;;23.80;47.30;;;;;;4938721;29;20029;-72
2022/08/09 08:28:04;;;;;;;9.77;2.92;;;23.70;47.20;;;;;;4956801;29;20028;-73
2022/08/09 08:30:30;;;;;;;10.63;3.40;;;23.80;47.40;;;;;;4955649;29;20147;-72
2022/08/09 08:32:56;;;;;;;5.57;2.45;;;23.80;47.40;;;;;;4956722;29;20495;-73
2022/08/09 08:35:22;;;;;;;6.20;2.33;;;23.90;47.60;;;;;;4954572;28;20098;-72
2022/08/09 08:37:48;;;;;;;11.52;2.63;;;23.90;47.50;;;;;;4956760;28;20066;-72
2022/08/09 08:40:14;;;;;;;4.55;2.45;;;23.90;47.10;;;;;;4956475;28;20103;-73
2022/08/09 08:42:42;;;;;;;5.90;2.60;;;23.90;46.80;;;;;;4955626;29;20090;-73
2022/08/09 08:45:10;;;;;;;4.75;2.42;;;23.70;46.50;;;;;;4955677;28;20391;-71
2022/08/09 08:47:39;;;;;;;8.48;2.40;;;23.70;46.60;;;;;;4956285;28;20037;-71
2022/08/09 08:50:05;;;;;;;5.25;2.45;;;23.70;46.90;;;;;;4956217;28;20502;-73
2022/08/09 08:52:32;;;;;;;6.07;2.30;;;23.80;46.80;;;;;;4956551;28;20547;-73
2022/08/09 08:54:59;;;;;;;10.27;2.22;;;23.70;46.60;;;;;;4956055;28;20031;-72
2022/08/09 08:57:26;;;;;;;11.85;2.20;;;23.70;45.90;;;;;;4954552;29;20122;-73
2022/08/09 08:59:53;;;;;;;6.85;2.53;;;23.70;46.50;;;;;;4955116;29;20399;-71
2022/08/09 09:02:25;;;;;;;7.22;2.50;;;23.60;45.60;;;;;;4955333;29;20063;-72
2022/08/09 09:04:57;;;;;;;5.95;2.40;;;23.60;45.80;;;;;;4954878;29;20522;-72
2022/08/09 09:07:24;;;;;;;8.18;2.80;;;23.60;45.70;;;;;;4955376;28;20456;-71
2022/08/09 09:09:51;;;;;;;3.70;2.20;;;23.60;45.80;;;;;;4955924;28;20488;-72
2022/08/09 09:12:25;;;;;;;6.50;2.60;;;23.70;45.90;;;;;;4955069;28;20039;-73
2022/08/09 09:14:52;;;;;;;5.60;2.10;;;23.70;46.00;;;;;;4954999;29;20514;-71
2022/08/09 09:17:18;;;;;;;4.50;2.17;;;23.80;45.90;;;;;;4953437;28;20039;-71
2022/08/09 09:19:45;;;;;;;6.75;2.20;;;23.70;45.40;;;;;;4955824;28;20055;-72
2022/08/09 09:22:18;;;;;;;8.50;2.53;;;23.70;45.20;;;;;;4954775;28;20039;-72
2022/08/09 09:24:46;;;;;;;9.40;2.28;;;23.80;45.40;;;;;;4955736;28;20407;-71
2022/08/09 09:27:15;;;;;;;6.40;2.20;;;23.70;44.80;;;;;;4954834;28;20027;-71
2022/08/09 09:29:42;;;;;;;5.45;2.00;;;23.70;44.80;;;;;;4953739;28;20038;-72
2022/08/09 09:32:09;;;;;;;7.55;2.30;;;23.80;45.40;;;;;;4954502;28;20031;-72
2022/08/09 09:34:35;;;;;;;4.75;2.63;;;23.70;44.60;;;;;;4954564;28;20177;-73
2022/08/09 09:37:02;;;;;;;4.82;2.17;;;23.80;44.40;;;;;;4953557;29;20038;-72
2022/08/09 09:39:49;;;;;;;7.70;2.22;;;23.80;44.80;;;;;;4955458;28;20031;-74
2022/08/09 09:42:29;;;;;;;5.95;2.05;;;23.80;44.30;;;;;;4954143;29;20042;-72
2022/08/09 09:44:57;;;;;;;;;;;23.90;44.30;;;;;;4954653;29;20027;-71
2022/08/09 09:47:22;;;;;;;5.47;2.20;;;23.80;43.70;;;;;;4953214;28;19915;-73
2022/08/09 09:49:49;;;;;;;6.55;2.30;;;23.70;43.20;;;;;;4954124;28;20384;-71
2022/08/09 09:52:15;;;;;;;3.97;2.10;;;23.70;43.90;;;;;;4954226;28;20035;-73
2022/08/09 09:54:45;;;;;;;4.85;2.63;;;23.70;44.50;;;;;;4953948;29;20038;-73
2022/08/09 09:57:14;;;;;;;4.72;2.00;;;23.70;43.30;;;;;;4953148;29;20038;-73
2022/08/09 09:59:41;;;;;;;7.18;2.20;;;23.70;44.10;;;;;;4953862;28;20570;-72
2022/08/09 10:02:07;;;;;;;5.25;2.63;;;23.90;44.30;;;;;;4955128;28;20030;-73
2022/08/09 10:04:34;;;;;;;4.15;1.95;;;24.00;44.30;;;;;;4950790;28;20122;-73
2022/08/09 10:06:59;;;;;;;7.63;2.65;;;24.10;44.20;;;;;;4953750;28;20054;-71
2022/08/09 10:09:25;;;;;;;4.38;2.20;;;24.20;44.50;;;;;;4954715;28;20479;-72
2022/08/09 10:12:01;;;;;;;6.32;2.50;;;24.30;44.20;;;;;;4954696;29;20027;-72
2022/08/09 10:14:29;;;;;;;4.65;2.20;;;24.20;43.30;;;;;;4953708;29;20050;-72
2022/08/09 10:16:55;;;;;;;7.00;2.05;;;24.20;43.70;;;;;;4952294;28;20058;-72
2022/08/09 10:19:34;;;;;;;4.38;1.98;;;24.10;43.60;;;;;;4954887;28;20039;-72
2022/08/09 10:22:00;;;;;;;13.80;6.97;;;24.00;43.60;;;;;;4953481;29;20066;-73
2022/08/09 10:24:26;;;;;;;5.80;2.53;;;24.10;44.10;;;;;;4953419;29;20039;-72
2022/08/09 10:26:55;;;;;;;14.80;7.22;;;24.00;43.70;;;;;;4953514;29;20043;-71
2022/08/09 10:29:22;;;;;;;10.93;3.05;;;24.00;44.20;;;;;;4953457;28;20118;-72
2022/08/09 10:31:48;;;;;;;6.68;3.35;;;24.10;43.60;;;;;;4953276;29;20059;-72
2022/08/09 10:34:15;;;;;;;7.65;3.50;;;24.20;44.90;;;;;;4954658;28;20392;-73
2022/08/09 10:36:42;;;;;;;4.78;2.70;;;24.20;43.70;;;;;;4952447;29;20387;-72
2022/08/09 10:39:09;;;;;;;5.22;2.67;;;24.10;43.30;;;;;;4954409;28;20035;-73
2022/08/09 10:41:35;;;;;;;5.32;2.55;;;24.00;43.20;;;;;;4953525;28;20035;-72
2022/08/09 10:44:02;;;;;;;6.00;2.83;;;24.10;43.10;;;;;;4954296;28;20027;-74
2022/08/09 10:46:59;;;;;;;4.57;2.50;;;24.20;44.20;;;;;;4952151;29;20031;-72
2022/08/09 10:50:01;;;;;;;5.32;2.30;;;24.30;43.70;;;;;;4954381;28;20550;-75
2022/08/09 10:52:33;;;;;;;4.70;2.30;;;24.20;43.60;;;;;;4951179;28;20094;-74
2022/08/09 10:55:20;;;;;;;8.20;2.70;;;24.30;43.70;;;;;;4952725;29;20031;-72
2022/08/09 10:57:46;;;;;;;10.07;3.92;;;24.30;44.10;;;;;;4952646;29;20035;-73
2022/08/09 11:00:31;;;;;;;20.70;14.55;;;24.40;43.40;;;;;;4953964;29;20039;-73
2022/08/09 11:02:58;;;;;;;21.30;13.50;;;24.50;43.70;;;;;;4953716;28;20039;-72
2022/08/09 11:05:26;;;;;;;18.15;8.63;;;24.50;43.80;;;;;;4951793;28;20039;-74
2022/08/09 11:07:52;;;;;;;10.77;5.70;;;24.60;43.90;;;;;;4952662;29;20110;-74
2022/08/09 11:10:40;;;;;;;12.35;5.88;;;24.80;42.70;;;;;;4953839;28;20027;-73
2022/08/09 11:13:18;;;;;;;9.73;4.07;;;24.80;43.20;;;;;;4953668;29;20391;-73
2022/08/09 11:15:44;;;;;;;16.30;5.25;;;24.70;43.60;;;;;;4952835;29;20039;-73
2022/08/09 11:18:14;;;;;;;11.02;3.95;;;24.70;44.00;;;;;;4952461;29;20395;-75
2022/08/09 11:20:51;;;;;;;10.43;4.10;;;24.80;43.50;;;;;;4953940;28;20384;-74
2022/08/09 11:23:17;;;;;;;7.63;3.72;;;24.70;43.30;;;;;;4953801;28;20031;-74
2022/08/09 11:25:44;;;;;;;9.20;3.50;;;24.70;43.50;;;;;;4952935;28;20031;-74
2022/08/09 11:28:29;;;;;;;9.50;3.72;;;24.60;43.60;;;;;;4952516;29;20031;-74
2022/08/09 11:30:54;;;;;;;9.50;3.20;;;24.50;42.70;;;;;;4952490;29;20061;-73
2022/08/09 11:33:27;;;;;;;6.18;3.00;;;24.40;43.40;;;;;;4952691;29;20087;-74
2022/08/09 11:36:00;;;;;;;6.97;2.97;;;24.30;42.90;;;;;;4951766;29;20067;-74
2022/08/09 11:38:30;;;;;;;5.13;2.47;;;24.20;43.30;;;;;;4953699;28;20031;-73
2022/08/09 11:40:56;;;;;;;8.30;2.90;;;24.20;43.70;;;;;;4953682;28;20235;-74
2022/08/09 11:43:25;;;;;;;6.88;2.80;;;24.20;43.30;;;;;;4953805;28;20027;-74
2022/08/09 11:46:00;;;;;;;4.18;2.47;;;24.30;43.20;;;;;;4952826;28;20127;-74
2022/08/09 11:48:31;;;;;;;6.07;2.35;;;24.30;42.80;;;;;;4952423;29;20122;-74
2022/08/09 11:50:57;;;;;;;3.88;2.70;;;24.20;42.20;;;;;;4953929;28;20031;-74
2022/08/09 11:53:25;;;;;;;6.38;2.03;;;24.30;42.70;;;;;;4955239;28;20034;-74
2022/08/09 11:55:52;;;;;;;6.50;2.35;;;24.20;42.20;;;;;;4955516;28;20062;-73
2022/08/09 11:58:18;;;;;;;5.40;2.70;;;24.40;43.40;;;;;;4956114;28;20507;-73
2022/08/09 12:00:54;;;;;;;6.45;2.50;;;24.60;42.80;;;;;;4957320;29;20114;-73
2022/08/09 12:03:23;;;;;;;7.90;2.80;;;24.50;42.20;;;;;;4956134;29;20031;-74
2022/08/09 12:05:51;;;;;;;12.40;2.85;;;24.50;42.70;;;;;;4952587;28;20031;-74
2022/08/09 12:08:18;;;;;;;5.18;2.15;;;24.50;42.90;;;;;;4955681;29;20031;-73
2022/08/09 12:10:47;;;;;;;5.20;2.45;;;24.40;42.70;;;;;;4956011;29;20028;-73
2022/08/09 12:13:29;;;;;;;4.05;2.50;;;24.40;43.00;;;;;;4956986;28;20480;-73
2022/08/09 12:16:00;;;;;;;10.10;3.05;;;24.50;42.00;;;;;;4956097;29;20035;-72
2022/08/09 12:18:26;;;;;;;5.18;2.42;;;24.50;42.20;;;;;;4955553;28;20035;-73
2022/08/09 12:20:52;;;;;;;6.75;2.40;;;24.50;42.20;;;;;;4955083;28;20515;-72
2022/08/09 12:23:18;;;;;;;4.65;2.50;;;24.50;43.20;;;;;;4955285;28;20042;-73
2022/08/09 12:25:53;;;;;;;6.18;2.55;;;24.60;42.70;;;;;;4956091;29;20050;-74
2022/08/09 12:28:21;;;;;;;5.85;2.70;;;24.60;42.00;;;;;;4924137;29;20062;-73
2022/08/09 12:30:48;;;;;;;3.92;2.47;;;24.60;42.20;;;;;;4956653;28;20415;-72
2022/08/09 12:33:16;;;;;;;4.15;2.42;;;24.50;42.50;;;;;;4956417;28;20023;-72
2022/08/09 12:35:43;;;;;;;5.68;2.17;;;24.50;42.60;;;;;;4954586;29;21687;-73
2022/08/09 12:38:29;;;;;;;6.07;2.33;;;24.40;42.40;;;;;;4956782;28;20042;-73
2022/08/09 12:40:57;;;;;;;5.32;2.80;;;24.40;43.00;;;;;;4956644;28;20031;-73
2022/08/09 12:43:24;;;;;;;5.25;2.67;;;24.50;42.70;;;;;;4955374;29;20047;-74
2022/08/09 12:45:52;;;;;;;5.90;3.10;;;24.50;42.90;;;;;;4954361;29;20035;-73
2022/08/09 12:48:19;;;;;;;6.53;2.97;;;24.60;43.20;;;;;;4956523;28;20037;-73
2022/08/09 12:50:46;;;;;;;6.53;2.50;;;24.50;42.20;;;;;;4955175;29;20480;-73
2022/08/09 12:53:36;;;;;;;5.93;2.58;;;24.50;42.20;;;;;;4956537;28;20027;-73